createdAt,value
2022-12-22T00:00:23.900Z,98627.56
2022-12-22T00:03:09.318Z,98621.56
2022-12-22T00:05:54.540Z,98619.75
2022-12-22T00:08:39.783Z,98611.31
2022-12-22T00:11:30.411Z,98608.72
2022-12-22T00:14:16.552Z,98608.72
2022-12-22T00:17:02.479Z,98595.91
2022-12-22T00:19:48.718Z,98595.13
2022-12-22T00:22:40.931Z,98590.78
2022-12-22T00:25:32.611Z,98589.09
2022-12-22T00:28:17.879Z,98589.09
2022-12-22T00:31:05.099Z,98577.19
2022-12-22T00:33:50.467Z,98576.38
2022-12-22T00:36:37.013Z,98569.56
2022-12-22T00:39:29.178Z,98565.31
2022-12-22T00:42:14.615Z,98568.75
2022-12-22T00:44:59.901Z,98562.84
2022-12-22T00:47:49.178Z,98551.81
2022-12-22T00:50:35.349Z,98550.16
2022-12-22T00:53:22.832Z,98534.13
2022-12-22T00:56:08.547Z,98534.19
2022-12-22T00:58:54.240Z,98529.84
2022-12-22T01:01:39.538Z,98523.94
2022-12-22T01:04:28.032Z,98519.69
2022-12-22T01:07:13.771Z,98524.00
2022-12-22T01:10:08.284Z,98523.09
2022-12-22T01:12:58.319Z,98521.41
2022-12-22T01:15:45.241Z,98517.97
2022-12-22T01:18:31.083Z,98514.56
2022-12-22T01:21:16.848Z,98511.13
2022-12-22T01:24:03.098Z,98514.50
2022-12-22T01:26:49.196Z,98500.09
2022-12-22T01:29:34.548Z,98496.69
2022-12-22T01:32:19.722Z,98505.88
2022-12-22T01:35:05.103Z,98497.41
2022-12-22T01:37:50.149Z,98487.22
2022-12-22T01:40:40.293Z,98478.66
2022-12-22T01:43:43.725Z,98471.03
2022-12-22T01:46:52.043Z,98465.94
2022-12-22T01:50:00.783Z,98465.19
2022-12-22T01:52:52.107Z,98470.22
2022-12-22T01:55:42.841Z,98466.84
2022-12-22T01:58:42.559Z,98458.38
2022-12-22T02:01:27.857Z,98459.22
2022-12-22T02:04:13.371Z,98451.59
2022-12-22T02:07:03.737Z,98444.84
2022-12-22T02:10:00.964Z,98434.75
2022-12-22T02:13:09.652Z,98434.00
2022-12-22T02:16:17.771Z,98416.31
2022-12-22T02:19:41.302Z,98407.09
2022-12-22T02:23:01.696Z,98400.44
2022-12-22T02:26:02.195Z,98397.16
2022-12-22T02:28:51.536Z,98392.13
2022-12-22T02:31:38.074Z,98392.91
2022-12-22T02:34:23.609Z,98386.97
2022-12-22T02:37:35.259Z,98383.56
2022-12-22T02:40:40.638Z,98382.81
2022-12-22T02:43:49.219Z,98386.31
2022-12-22T02:46:52.326Z,98380.41
2022-12-22T02:49:55.252Z,98376.97
2022-12-22T02:52:50.508Z,98375.19
2022-12-22T02:55:36.902Z,98376.00
2022-12-22T02:58:22.260Z,98369.13
2022-12-22T03:01:08.717Z,98369.94
2022-12-22T03:03:54.886Z,98365.59
2022-12-22T03:06:40.137Z,98369.75
2022-12-22T03:09:25.514Z,98368.94
2022-12-22T03:12:10.891Z,98359.69
2022-12-22T03:14:55.971Z,98355.47
2022-12-22T03:17:41.493Z,98343.63
2022-12-22T03:20:27.563Z,98342.03
2022-12-22T03:23:13.182Z,98329.38
2022-12-22T03:25:54.866Z,98325.22
2022-12-22T03:28:26.058Z,98321.00
2022-12-22T03:31:05.178Z,98314.19
2022-12-22T03:33:32.255Z,98317.53
2022-12-22T03:36:00.307Z,98304.72
2022-12-22T03:38:27.954Z,98299.59
2022-12-22T03:40:55.415Z,98299.50
2022-12-22T03:43:41.180Z,98293.53
2022-12-22T03:46:31.028Z,98285.06
2022-12-22T03:49:10.285Z,98286.03
2022-12-22T03:51:49.008Z,98272.50
2022-12-22T03:54:22.511Z,98271.72
2022-12-22T03:56:50.532Z,98270.03
2022-12-22T03:59:18.945Z,98267.56
2022-12-22T04:01:52.866Z,98272.72
2022-12-22T04:04:25.023Z,98277.84
2022-12-22T04:06:52.841Z,98281.31
2022-12-22T04:09:19.968Z,98272.91
2022-12-22T04:12:05.517Z,98261.94
2022-12-22T04:14:34.728Z,98258.59
2022-12-22T04:17:04.034Z,98256.84
2022-12-22T04:19:31.932Z,98258.50
2022-12-22T04:21:58.915Z,98251.75
2022-12-22T04:24:25.675Z,98254.25
2022-12-22T04:26:52.677Z,98244.06
2022-12-22T04:29:19.420Z,98245.69
2022-12-22T04:31:46.187Z,98238.94
2022-12-22T04:34:12.989Z,98249.91
2022-12-22T04:36:39.822Z,98241.41
2022-12-22T04:39:06.580Z,98248.16
2022-12-22T04:41:33.330Z,98231.19
2022-12-22T04:44:00.115Z,98236.25
2022-12-22T04:46:26.847Z,98222.69
2022-12-22T04:48:59.550Z,98229.44
2022-12-22T04:51:28.201Z,98234.53
2022-12-22T04:53:54.931Z,98232.06
2022-12-22T04:56:21.833Z,98231.31
2022-12-22T04:58:48.581Z,98233.91
2022-12-22T05:01:18.721Z,98228.16
2022-12-22T05:03:46.217Z,98239.31
2022-12-22T05:06:14.128Z,98231.75
2022-12-22T05:08:41.782Z,98226.66
2022-12-22T05:11:08.726Z,98223.31
2022-12-22T05:13:35.495Z,98231.75
2022-12-22T05:16:06.539Z,98235.03
2022-12-22T05:18:35.466Z,98231.63
2022-12-22T05:21:09.241Z,98230.69
2022-12-22T05:23:35.972Z,98233.19
2022-12-22T05:26:03.399Z,98239.06
2022-12-22T05:28:30.176Z,98238.06
2022-12-22T05:30:56.946Z,98239.66
2022-12-22T05:33:23.821Z,98243.03
2022-12-22T05:35:50.528Z,98247.19
2022-12-22T05:38:17.301Z,98251.38
2022-12-22T05:40:44.023Z,98249.69
2022-12-22T05:43:10.839Z,98256.34
2022-12-22T05:45:37.757Z,98262.19
2022-12-22T05:48:04.919Z,98271.47
2022-12-22T05:50:32.642Z,98264.69
2022-12-22T05:52:59.743Z,98273.88
2022-12-22T05:55:26.500Z,98279.88
2022-12-22T05:57:53.289Z,98279.88
2022-12-22T06:00:20.892Z,98276.56
2022-12-22T06:02:47.745Z,98284.03
2022-12-22T06:05:15.456Z,98284.97
2022-12-22T06:07:42.604Z,98287.50
2022-12-22T06:10:12.769Z,98295.22
2022-12-22T06:12:40.908Z,98294.41
2022-12-22T06:15:11.404Z,98293.53
2022-12-22T06:17:44.441Z,98297.75
2022-12-22T06:20:12.825Z,98297.00
2022-12-22T06:22:39.573Z,98298.66
2022-12-22T06:25:06.950Z,98305.38
2022-12-22T06:27:33.784Z,98307.47
2022-12-22T06:30:00.542Z,98314.09
2022-12-22T06:32:27.296Z,98313.69
2022-12-22T06:34:54.083Z,98317.41
2022-12-22T06:37:20.794Z,98326.00
2022-12-22T06:39:47.589Z,98325.28
2022-12-22T06:42:32.620Z,98334.72
2022-12-22T06:44:59.417Z,98339.13
2022-12-22T06:47:26.167Z,98337.63
2022-12-22T06:49:52.953Z,98355.53
2022-12-22T06:52:19.668Z,98351.22
2022-12-22T06:54:46.417Z,98353.06
2022-12-22T06:57:13.267Z,98359.03
2022-12-22T06:59:40.053Z,98355.72
2022-12-22T07:02:07.277Z,98357.38
2022-12-22T07:04:34.059Z,98372.59
2022-12-22T07:07:00.839Z,98373.50
2022-12-22T07:09:27.611Z,98382.81
2022-12-22T07:11:54.414Z,98385.38
2022-12-22T07:14:21.399Z,98395.53
2022-12-22T07:16:48.249Z,98404.06
2022-12-22T07:19:15.122Z,98412.56
2022-12-22T07:21:41.847Z,98413.50
2022-12-22T07:24:09.033Z,98420.31
2022-12-22T07:26:35.733Z,98419.50
2022-12-22T07:29:02.459Z,98426.31
2022-12-22T07:31:29.182Z,98435.63
2022-12-22T07:33:55.937Z,98439.03
2022-12-22T07:36:22.686Z,98442.44
2022-12-22T07:38:51.860Z,98439.09
2022-12-22T07:41:38.788Z,98448.38
2022-12-22T07:44:05.776Z,98447.63
2022-12-22T07:46:36.977Z,98451.84
2022-12-22T07:49:23.781Z,98461.19
2022-12-22T07:51:51.597Z,98478.97
2022-12-22T07:54:18.694Z,98479.81
2022-12-22T07:56:46.977Z,98484.06
2022-12-22T07:59:14.537Z,98492.59
2022-12-22T08:01:41.897Z,98494.28
2022-12-22T08:04:10.150Z,98501.09
2022-12-22T08:06:37.612Z,98511.22
2022-12-22T08:09:06.554Z,98515.53
2022-12-22T08:11:34.212Z,98519.72
2022-12-22T08:14:02.136Z,98536.56
2022-12-22T08:16:29.554Z,98539.13
2022-12-22T08:18:56.993Z,98545.06
2022-12-22T08:21:24.024Z,98549.25
2022-12-22T08:23:51.252Z,98561.94
2022-12-22T08:26:38.846Z,98565.34
2022-12-22T08:29:16.043Z,98569.56
2022-12-22T08:31:43.860Z,98573.84
2022-12-22T08:34:15.562Z,98575.50
2022-12-22T08:36:49.052Z,98585.66
2022-12-22T08:39:18.974Z,98584.00
2022-12-22T08:41:51.751Z,98586.53
2022-12-22T08:44:28.626Z,98600.13
2022-12-22T08:46:59.574Z,98606.06
2022-12-22T08:49:26.852Z,98607.75
2022-12-22T08:51:54.609Z,98612.00
2022-12-22T08:54:21.597Z,98627.19
2022-12-22T08:56:49.689Z,98629.75
2022-12-22T08:59:16.918Z,98636.53
2022-12-22T09:01:48.132Z,98646.63
2022-12-22T09:04:19.320Z,98663.59
2022-12-22T09:06:46.280Z,98655.97
2022-12-22T09:09:15.117Z,98666.91
2022-12-22T09:11:42.568Z,98676.25
2022-12-22T09:14:11.378Z,98678.84
2022-12-22T09:16:39.614Z,98693.16
2022-12-22T09:19:07.695Z,98698.28
2022-12-22T09:21:35.448Z,98706.75
2022-12-22T09:24:03.278Z,98710.97
2022-12-22T09:26:30.356Z,98715.25
2022-12-22T09:28:58.021Z,98718.59
2022-12-22T09:31:26.451Z,98712.59
2022-12-22T09:33:53.699Z,98710.81
2022-12-22T09:36:24.763Z,98721.81
2022-12-22T09:38:51.756Z,98724.22
2022-12-22T09:41:25.764Z,98721.47
2022-12-22T09:43:52.544Z,98725.53
2022-12-22T09:46:26.948Z,98726.09
2022-12-22T09:48:54.897Z,98733.50
2022-12-22T09:51:26.997Z,98719.66
2022-12-22T09:53:59.612Z,98718.59
2022-12-22T09:56:29.141Z,98741.22
2022-12-22T09:58:56.588Z,98752.13
2022-12-22T10:01:46.508Z,98749.41
2022-12-22T10:04:54.432Z,98754.41
2022-12-22T10:07:34.403Z,98761.94
2022-12-22T10:10:16.936Z,98776.69
2022-12-22T10:12:43.626Z,98780.13
2022-12-22T10:15:15.607Z,98781.69
2022-12-22T10:17:45.297Z,98780.91
2022-12-22T10:20:26.238Z,98792.19
2022-12-22T10:23:00.181Z,98791.22
2022-12-22T10:28:36.589Z,98787.59
2022-12-22T10:31:25.841Z,98787.88
2022-12-22T10:33:57.816Z,98784.84
2022-12-22T10:36:32.381Z,98784.22
2022-12-22T10:39:09.784Z,98796.09
2022-12-22T10:41:49.833Z,98787.59
2022-12-22T10:44:16.523Z,98789.97
2022-12-22T10:46:51.301Z,98782.72
2022-12-22T10:52:30.439Z,98801.63
2022-12-22T10:55:22.386Z,98813.41
2022-12-22T10:57:50.428Z,98813.28
2022-12-22T11:00:30.080Z,98816.31
2022-12-22T11:03:00.938Z,98817.69
2022-12-22T11:05:28.829Z,98824.28
2022-12-22T11:07:56.349Z,98836.19
2022-12-22T11:10:27.667Z,98839.81
2022-12-22T11:13:21.743Z,98837.59
2022-12-22T11:16:17.884Z,98833.56
2022-12-22T11:19:03.619Z,98837.56
2022-12-22T11:22:02.904Z,98838.75
2022-12-22T11:25:21.863Z,98846.22
2022-12-22T11:28:36.068Z,98852.31
2022-12-22T11:31:59.078Z,98851.06
2022-12-22T11:35:09.295Z,98853.22
2022-12-22T11:37:49.466Z,98857.00
2022-12-22T11:40:52.992Z,98857.38
2022-12-22T11:43:27.614Z,98855.19
2022-12-22T11:46:14.297Z,98857.91
2022-12-22T11:49:24.133Z,98843.66
2022-12-22T11:52:37.722Z,98854.13
2022-12-22T11:55:52.686Z,98852.44
2022-12-22T11:58:59.272Z,98854.78
2022-12-22T12:02:08.823Z,98855.81
2022-12-22T12:04:54.343Z,98862.91
2022-12-22T12:07:41.204Z,98861.63
2022-12-22T12:10:44.753Z,98857.22
2022-12-22T12:14:07.515Z,98859.88
2022-12-22T12:17:06.030Z,98852.41
2022-12-22T12:20:12.964Z,98850.09
2022-12-22T12:23:31.524Z,98853.59
2022-12-22T12:26:21.508Z,98851.25
2022-12-22T12:29:03.597Z,98836.91
2022-12-22T12:31:43.809Z,98843.72
2022-12-22T12:34:15.851Z,98836.91
2022-12-22T12:37:07.964Z,98842.00
2022-12-22T12:40:15.345Z,98840.28
2022-12-22T12:42:46.760Z,98838.63
2022-12-22T12:45:45.586Z,98837.00
2022-12-22T12:48:21.218Z,98833.56
2022-12-22T12:50:58.194Z,98822.41
2022-12-22T12:53:27.881Z,98830.94
2022-12-22T12:56:04.865Z,98831.84
2022-12-22T12:58:37.660Z,98833.69
2022-12-22T13:01:12.516Z,98821.13
2022-12-22T13:06:52.082Z,98828.25
2022-12-22T13:09:49.743Z,98827.50
2022-12-22T13:12:39.866Z,98825.91
2022-12-22T13:15:34.855Z,98826.00
2022-12-22T13:18:09.622Z,98824.31
2022-12-22T13:20:37.802Z,98832.94
2022-12-22T13:23:15.120Z,98835.66
2022-12-22T13:25:59.128Z,98839.06
2022-12-22T13:28:27.884Z,98837.44
2022-12-22T13:31:07.994Z,98846.84
2022-12-22T13:33:40.084Z,98841.06
2022-12-22T13:36:18.445Z,98839.47
2022-12-22T13:38:45.808Z,98850.72
2022-12-22T13:41:26.852Z,98842.44
2022-12-22T13:44:04.054Z,98836.75
2022-12-22T13:46:36.011Z,98835.19
2022-12-22T13:49:04.881Z,98841.34
2022-12-22T13:51:37.376Z,98837.22
2022-12-22T13:54:24.745Z,98845.19
2022-12-22T13:56:56.595Z,98844.44
2022-12-22T13:59:26.062Z,98840.34
2022-12-22T14:02:18.623Z,98843.81
2022-12-22T14:05:08.751Z,98838.06
2022-12-22T14:07:35.867Z,98834.75
2022-12-22T14:10:02.730Z,98830.63
2022-12-22T14:12:44.466Z,98826.50
2022-12-22T14:15:18.918Z,98817.31
2022-12-22T14:17:52.166Z,98803.91
2022-12-22T14:20:36.298Z,98814.25
2022-12-22T14:23:18.725Z,98815.19
2022-12-22T14:25:48.370Z,98813.63
2022-12-22T14:28:43.149Z,98806.19
2022-12-22T14:31:13.379Z,98799.56
2022-12-22T14:33:56.612Z,98791.16
2022-12-22T14:36:27.352Z,98789.53
2022-12-22T14:39:00.053Z,98800.59
2022-12-22T14:41:51.592Z,98796.44
2022-12-22T14:44:20.645Z,98800.66
2022-12-22T14:47:16.081Z,98791.34
2022-12-22T14:49:52.020Z,98792.16
2022-12-22T14:52:37.523Z,98785.50
2022-12-22T14:55:20.711Z,98782.91
2022-12-22T14:58:10.045Z,98775.34
2022-12-22T15:00:45.075Z,98788.03
2022-12-22T15:03:34.997Z,98775.34
2022-12-22T15:06:27.348Z,98779.59
2022-12-22T15:09:14.338Z,98773.69
2022-12-22T15:11:52.957Z,98772.91
2022-12-22T15:14:24.730Z,98766.06
2022-12-22T15:16:57.296Z,98769.47
2022-12-22T15:19:24.360Z,98754.25
2022-12-22T15:21:51.780Z,98761.84
2022-12-22T15:24:19.348Z,98757.63
2022-12-22T15:26:46.931Z,98754.19
2022-12-22T15:29:14.322Z,98752.56
2022-12-22T15:31:42.942Z,98752.59
2022-12-22T15:34:31.381Z,98756.91
2022-12-22T15:36:58.324Z,98745.97
2022-12-22T15:39:25.062Z,98746.81
2022-12-22T15:41:51.868Z,98751.88
2022-12-22T15:44:18.865Z,98746.81
2022-12-22T15:46:55.263Z,98740.06
2022-12-22T15:49:27.004Z,98741.75
2022-12-22T15:51:58.987Z,98736.72
2022-12-22T15:54:27.965Z,98728.28
2022-12-22T15:56:55.786Z,98728.44
2022-12-22T15:59:28.699Z,98727.63
2022-12-22T16:02:02.008Z,98723.84
2022-12-22T16:04:29.685Z,98719.13
2022-12-22T16:06:58.496Z,98719.41
2022-12-22T16:09:32.671Z,98704.34
2022-12-22T16:11:59.396Z,98717.19
2022-12-22T16:14:26.193Z,98707.09
2022-12-22T16:16:52.978Z,98705.44
2022-12-22T16:19:19.841Z,98706.28
2022-12-22T16:21:51.972Z,98701.25
2022-12-22T16:24:35.391Z,98692.06
2022-12-22T16:27:03.022Z,98687.91
2022-12-22T16:29:30.190Z,98688.78
2022-12-22T16:32:17.581Z,98685.44
2022-12-22T16:34:44.945Z,98687.16
2022-12-22T16:37:11.687Z,98676.97
2022-12-22T16:39:38.453Z,98671.91
2022-12-22T16:42:06.549Z,98674.41
2022-12-22T16:47:26.956Z,98668.44
2022-12-22T16:49:53.816Z,98666.72
2022-12-22T16:52:28.325Z,98663.31
2022-12-22T16:54:55.204Z,98661.59
2022-12-22T16:57:21.962Z,98653.88
2022-12-22T16:59:48.685Z,98653.88
2022-12-22T17:02:30.859Z,98653.88
2022-12-22T17:05:01.235Z,98652.19
2022-12-22T17:07:33.415Z,98638.63
2022-12-22T17:10:02.130Z,98650.47
2022-12-22T17:12:34.392Z,98643.72
2022-12-22T17:15:02.256Z,98642.78
2022-12-22T17:17:35.505Z,98639.34
2022-12-22T17:20:04.287Z,98638.50
2022-12-22T17:22:34.186Z,98642.66
2022-12-22T17:25:05.503Z,98647.69
2022-12-22T17:27:34.712Z,98630.66
2022-12-22T17:30:03.920Z,98625.56
2022-12-22T17:32:30.642Z,98622.22
2022-12-22T17:34:57.702Z,98616.22
2022-12-22T17:37:24.452Z,98617.84
2022-12-22T17:39:58.932Z,98617.84
2022-12-22T17:42:26.117Z,98609.34
2022-12-22T17:44:52.953Z,98603.41
2022-12-22T17:47:26.921Z,98603.31
2022-12-22T17:49:58.612Z,98605.00
2022-12-22T17:52:27.842Z,98602.38
2022-12-22T17:54:55.173Z,98599.78
2022-12-22T17:57:29.599Z,98596.34
2022-12-22T17:59:56.451Z,98599.59
2022-12-22T18:02:25.676Z,98597.06
2022-12-22T18:04:53.453Z,98598.78
2022-12-22T18:07:23.897Z,98600.50
2022-12-22T18:09:58.936Z,98599.56
2022-12-22T18:12:25.952Z,98602.06
2022-12-22T18:14:53.116Z,98592.66
2022-12-22T18:17:34.918Z,98590.22
2022-12-22T18:20:02.843Z,98586.00
2022-12-22T18:22:29.906Z,98588.47
2022-12-22T18:24:57.637Z,98588.44
2022-12-22T18:27:24.761Z,98573.22
2022-12-22T18:29:51.618Z,98576.59
2022-12-22T18:32:26.409Z,98579.94
2022-12-22T18:34:54.632Z,98573.19
2022-12-22T18:37:21.522Z,98569.72
2022-12-22T18:39:48.373Z,98571.28
2022-12-22T18:42:23.547Z,98563.72
2022-12-22T18:44:51.575Z,98552.75
2022-12-22T18:47:18.928Z,98545.97
2022-12-22T18:49:46.387Z,98550.16
2022-12-22T18:52:19.226Z,98539.22
2022-12-22T18:54:46.843Z,98537.47
2022-12-22T18:57:19.425Z,98525.78
2022-12-22T18:59:48.091Z,98539.28
2022-12-22T19:02:26.492Z,98531.66
2022-12-22T19:04:55.114Z,98526.53
2022-12-22T19:07:25.464Z,98529.09
2022-12-22T19:09:52.604Z,98533.38
2022-12-22T19:12:23.101Z,98532.56
2022-12-22T19:14:57.138Z,98525.78
2022-12-22T19:17:28.599Z,98526.63
2022-12-22T19:19:56.568Z,98529.97
2022-12-22T19:22:23.570Z,98524.03
2022-12-22T19:24:51.471Z,98531.56
2022-12-22T19:27:27.203Z,98528.19
2022-12-22T19:30:03.501Z,98512.94
2022-12-22T19:32:41.723Z,98521.41
2022-12-22T19:35:24.490Z,98518.88
2022-12-22T19:37:53.394Z,98522.19
2022-12-22T19:40:27.541Z,98529.75
2022-12-22T19:42:57.322Z,98539.00
2022-12-22T19:45:36.763Z,98533.91
2022-12-22T19:48:16.186Z,98537.25
2022-12-22T19:50:42.903Z,98536.47
2022-12-22T19:53:11.455Z,98549.97
2022-12-22T19:55:44.015Z,98536.47
2022-12-22T19:58:25.613Z,98535.59
2022-12-22T20:00:53.205Z,98540.66
2022-12-22T20:03:26.113Z,98538.13
2022-12-22T20:05:53.171Z,98537.22
2022-12-22T20:08:19.964Z,98532.16
2022-12-22T20:10:49.565Z,98545.69
2022-12-22T20:13:21.695Z,98543.13
2022-12-22T20:15:49.421Z,98535.53
2022-12-22T20:18:30.091Z,98537.31
2022-12-22T20:20:59.770Z,98530.59
2022-12-22T20:23:30.047Z,98529.03
2022-12-22T20:26:08.270Z,98528.25
2022-12-22T20:28:39.592Z,98522.38
2022-12-22T20:31:11.885Z,98523.38
2022-12-22T20:33:38.751Z,98521.00
2022-12-22T20:36:20.682Z,98521.06
2022-12-22T20:38:52.175Z,98522.88
2022-12-22T20:41:20.472Z,98523.75
2022-12-22T20:43:47.675Z,98512.72
2022-12-22T20:46:22.868Z,98517.88
2022-12-22T20:49:01.506Z,98519.59
2022-12-22T20:51:32.654Z,98518.84
2022-12-22T20:54:00.388Z,98512.09
2022-12-22T20:56:38.044Z,98519.72
2022-12-22T20:59:22.159Z,98529.09
2022-12-22T21:01:52.311Z,98524.88
2022-12-22T21:04:19.377Z,98525.72
2022-12-22T21:06:51.842Z,98527.44
2022-12-22T21:09:19.469Z,98524.06
2022-12-22T21:11:46.451Z,98508.78
2022-12-22T21:14:14.292Z,98507.09
2022-12-22T21:16:42.447Z,98506.28
2022-12-22T21:19:17.121Z,98513.06
2022-12-22T21:21:44.100Z,98504.66
2022-12-22T21:24:10.886Z,98501.22
2022-12-22T21:26:42.847Z,98502.03
2022-12-22T21:29:20.044Z,98506.28
2022-12-22T21:31:46.733Z,98515.59
2022-12-22T21:34:13.540Z,98520.72
2022-12-22T21:36:43.933Z,98521.53
2022-12-22T21:39:37.563Z,98521.59
2022-12-22T21:42:05.214Z,98525.81
2022-12-22T21:44:35.114Z,98514.81
2022-12-22T21:47:02.288Z,98518.19
2022-12-22T21:49:32.199Z,98524.06
2022-12-22T21:51:59.247Z,98534.19
2022-12-22T21:54:27.678Z,98526.63
2022-12-22T21:56:54.947Z,98521.53
2022-12-22T21:59:26.446Z,98524.84
2022-12-22T22:01:53.785Z,98524.84
2022-12-22T22:04:22.157Z,98519.81
2022-12-22T22:06:49.280Z,98526.69
2022-12-22T22:09:16.070Z,98527.53
2022-12-22T22:12:01.592Z,98524.19
2022-12-22T22:14:28.383Z,98519.97
2022-12-22T22:16:55.196Z,98518.31
2022-12-22T22:19:22.053Z,98523.44
2022-12-22T22:21:48.892Z,98520.03
2022-12-22T22:24:15.718Z,98525.09
2022-12-22T22:26:46.193Z,98526.78
2022-12-22T22:29:13.086Z,98534.34
2022-12-22T22:31:41.506Z,98530.13
2022-12-22T22:34:08.994Z,98525.88
2022-12-22T22:36:35.801Z,98533.44
2022-12-22T22:39:02.894Z,98526.69
2022-12-22T22:41:32.336Z,98535.16
2022-12-22T22:44:02.036Z,98539.44
2022-12-22T22:46:28.837Z,98536.06
2022-12-22T22:48:58.433Z,98542.03
2022-12-22T22:51:25.542Z,98540.34
2022-12-22T22:53:52.248Z,98537.81
2022-12-22T22:56:18.994Z,98537.81
2022-12-22T22:58:45.727Z,98537.00
2022-12-22T23:01:12.465Z,98536.09
2022-12-22T23:03:39.382Z,98535.28
2022-12-22T23:06:10.754Z,98527.53
2022-12-22T23:08:38.073Z,98527.59
2022-12-22T23:11:06.173Z,98532.63
2022-12-22T23:13:33.065Z,98523.38
2022-12-22T23:16:03.473Z,98519.94
2022-12-22T23:18:32.060Z,98512.34
2022-12-22T23:21:01.404Z,98521.66
2022-12-22T23:23:30.041Z,98519.94
2022-12-22T23:25:56.847Z,98507.22
2022-12-22T23:28:23.817Z,98512.31
2022-12-22T23:30:52.814Z,98513.94
2022-12-22T23:33:20.630Z,98515.66
2022-12-22T23:35:49.897Z,98516.47
2022-12-22T23:38:20.816Z,98525.72
2022-12-22T23:40:53.498Z,98516.44
2022-12-22T23:43:21.444Z,98517.25
2022-12-22T23:45:48.203Z,98513.00
2022-12-22T23:48:14.975Z,98523.22
2022-12-22T23:50:45.184Z,98522.44
2022-12-22T23:53:11.921Z,98520.84
2022-12-22T23:55:47.036Z,98522.63
2022-12-22T23:58:15.101Z,98520.94
